Time;durP1;ratioP1;P1;durP2;ratioP2;P2;SDS_P1;SDS_P2;PMS_P1;PMS_P2;Temp;Humidity;BMP_temperature;BMP_pressure;BME280_temperature;BME280_humidity;BME280_pressure;Samples;Min_cycle;Max_cycle;Signal;HPM_P1;HPM_P2
2022/12/09 00:02:07;;;;;;;24.02;11.73;;;-0.90;99.90;;;;;;5058200;28;20052;-60
2022/12/09 00:04:35;;;;;;;28.33;13.45;;;-0.90;99.90;;;;;;5070229;28;20057;-59
2022/12/09 00:07:03;;;;;;;33.05;14.27;;;-0.80;99.90;;;;;;5056927;28;20045;-59
2022/12/09 00:09:35;;;;;;;26.02;15.27;;;-0.80;99.90;;;;;;5056178;28;20404;-62
2022/12/09 00:12:04;;;;;;;31.83;15.10;;;-0.70;99.90;;;;;;5058932;28;20061;-59
2022/12/09 00:14:33;;;;;;;32.72;14.88;;;-0.70;99.90;;;;;;5056963;28;20049;-59
2022/12/09 00:17:01;;;;;;;32.35;14.88;;;-0.70;99.90;;;;;;5058768;28;20477;-61
2022/12/09 00:19:29;;;;;;;29.98;14.23;;;-0.70;99.90;;;;;;5070417;28;20052;-59
2022/12/09 00:21:58;;;;;;;33.03;14.10;;;-0.70;99.90;;;;;;5067271;28;20053;-59
2022/12/09 00:24:26;;;;;;;28.10;13.55;;;-0.60;99.90;;;;;;5068309;28;20055;-61
2022/12/09 00:26:54;;;;;;;28.20;13.95;;;-0.70;99.90;;;;;;5058120;28;20052;-59
2022/12/09 00:29:22;;;;;;;26.55;14.23;;;-0.60;99.90;;;;;;5051279;28;20056;-60
2022/12/09 00:31:49;;;;;;;28.15;12.45;;;-0.70;99.90;;;;;;5060204;28;20509;-59
2022/12/09 00:34:18;;;;;;;28.50;13.40;;;-0.60;99.90;;;;;;5063412;28;20036;-59
2022/12/09 00:36:49;;;;;;;26.23;12.23;;;-0.60;99.90;;;;;;5040703;28;20052;-60
2022/12/09 00:39:17;;;;;;;25.55;12.75;;;-0.60;99.90;;;;;;5051773;28;20056;-60
2022/12/09 00:41:47;;;;;;;24.05;10.68;;;-0.60;99.90;;;;;;5046885;28;20065;-60
2022/12/09 00:44:16;;;;;;;20.70;10.77;;;-0.60;99.90;;;;;;5057219;28;20737;-61
2022/12/09 00:46:44;;;;;;;21.50;11.00;;;-0.70;99.90;;;;;;5060553;28;20070;-59
2022/12/09 00:49:11;;;;;;;23.52;10.77;;;-0.70;99.90;;;;;;5066079;28;20052;-59
2022/12/09 00:51:39;;;;;;;19.48;10.75;;;-0.80;99.90;;;;;;5067750;28;20079;-60
2022/12/09 00:54:07;;;;;;;20.08;9.75;;;-0.80;99.90;;;;;;5062947;28;20045;-59
2022/12/09 00:56:38;;;;;;;18.85;8.25;;;-0.70;99.90;;;;;;5059306;28;20051;-60
2022/12/09 00:59:09;;;;;;;15.60;8.52;;;-0.80;99.90;;;;;;5050420;28;20044;-60
2022/12/09 01:01:37;;;;;;;18.02;8.82;;;-0.70;99.90;;;;;;5068064;28;20048;-60
2022/12/09 01:04:08;;;;;;;18.35;8.07;;;-0.70;99.90;;;;;;5055037;28;20048;-60
2022/12/09 01:06:36;;;;;;;17.27;8.38;;;-0.60;99.90;;;;;;5060689;28;20380;-59
2022/12/09 01:09:04;;;;;;;19.63;8.60;;;-0.60;99.90;;;;;;5050292;28;20041;-59
2022/12/09 01:11:33;;;;;;;19.02;9.00;;;-0.50;99.90;;;;;;5060259;28;20058;-60
2022/12/09 01:14:02;;;;;;;19.55;7.82;;;-0.50;99.90;;;;;;5051188;28;20052;-60
2022/12/09 01:16:31;;;;;;;;;;;-0.50;99.90;;;;;;5061513;28;20045;-60
2022/12/09 01:19:03;;;;;;;14.38;7.80;;;-0.40;99.90;;;;;;5068625;28;19921;-60
2022/12/09 01:21:32;;;;;;;13.88;7.95;;;-0.40;99.90;;;;;;5068558;28;20041;-60
2022/12/09 01:24:00;;;;;;;13.00;7.07;;;-0.40;99.90;;;;;;5060678;28;20037;-60
2022/12/09 01:26:28;;;;;;;13.85;6.43;;;-0.30;99.90;;;;;;5061797;28;20060;-60
2022/12/09 01:28:56;;;;;;;16.55;7.72;;;-0.30;99.90;;;;;;5052848;28;20049;-60
2022/12/09 01:31:25;;;;;;;21.23;7.35;;;-0.30;99.90;;;;;;5067394;28;20067;-60
2022/12/09 01:33:54;;;;;;;14.30;6.33;;;-0.30;99.90;;;;;;5053691;28;20045;-60
2022/12/09 01:36:26;;;;;;;14.98;7.35;;;-0.30;99.90;;;;;;5059436;28;20297;-61
2022/12/09 01:38:57;;;;;;;12.73;6.68;;;-0.30;99.90;;;;;;5061106;28;20060;-60
2022/12/09 01:41:26;;;;;;;16.08;6.97;;;-0.30;99.90;;;;;;5054839;28;20060;-60
2022/12/09 01:44:11;;;;;;;14.52;6.15;;;-0.40;99.90;;;;;;5064038;28;20044;-61
2022/12/09 01:46:39;;;;;;;13.65;6.72;;;-0.40;99.90;;;;;;5060838;28;20048;-62
2022/12/09 01:49:11;;;;;;;12.82;6.55;;;-0.50;99.90;;;;;;5066118;28;20476;-60
2022/12/09 01:51:48;;;;;;;13.30;6.90;;;-0.60;99.90;;;;;;5050016;28;20044;-60
2022/12/09 01:54:19;;;;;;;19.98;7.30;;;-0.60;99.90;;;;;;5058285;28;20044;-60
2022/12/09 01:56:47;;;;;;;17.65;7.53;;;-0.70;99.90;;;;;;5057339;28;20041;-60
2022/12/09 01:59:15;;;;;;;19.35;9.45;;;-0.70;99.90;;;;;;5065444;28;20044;-59
2022/12/09 02:02:03;;;;;;;22.35;8.98;;;-0.80;99.90;;;;;;5055400;28;20036;-59
2022/12/09 02:04:50;;;;;;;20.02;8.43;;;-0.90;99.90;;;;;;5061411;28;20502;-59
2022/12/09 02:07:39;;;;;;;21.80;9.60;;;-1.00;99.90;;;;;;5052354;28;20048;-59
2022/12/09 02:10:27;;;;;;;17.58;8.73;;;;;;;;;;5059738;28;20044;-60
2022/12/09 02:13:21;;;;;;;26.05;8.82;;;-1.10;99.90;;;;;;5063730;28;20048;-59
2022/12/09 02:15:56;;;;;;;;;;;-1.10;99.90;;;;;;5067722;28;20040;-59
2022/12/09 02:18:59;;;;;;;25.25;8.65;;;-1.30;99.90;;;;;;5059166;28;19921;-60
2022/12/09 02:21:47;;;;;;;18.08;8.43;;;-1.30;99.90;;;;;;5063936;28;20056;-60
2022/12/09 02:24:41;;;;;;;16.02;8.38;;;-1.40;99.90;;;;;;5058583;28;20037;-59
2022/12/09 02:27:27;;;;;;;20.50;9.60;;;-1.50;99.90;;;;;;5054732;28;20130;-59
2022/12/09 02:30:14;;;;;;;20.40;9.82;;;-1.50;99.90;;;;;;5062487;28;20032;-58
2022/12/09 02:32:49;;;;;;;17.92;9.30;;;-1.60;99.90;;;;;;5056078;28;20392;-59
2022/12/09 02:35:34;;;;;;;24.17;9.27;;;-1.70;99.90;;;;;;5067606;28;20063;-59
2022/12/09 02:38:09;;;;;;;19.00;10.32;;;-1.80;99.90;;;;;;5053163;28;20044;-60
2022/12/09 02:40:47;;;;;;;19.98;9.43;;;-1.80;99.90;;;;;;5057016;28;20052;-59
2022/12/09 02:43:18;;;;;;;20.65;10.10;;;-1.80;99.90;;;;;;5079388;28;20419;-60
2022/12/09 02:45:48;;;;;;;17.05;8.43;;;-1.90;99.90;;;;;;5050200;28;20480;-59
2022/12/09 02:48:20;;;;;;;18.73;9.20;;;-1.90;99.90;;;;;;5064652;28;20036;-60
2022/12/09 02:50:51;;;;;;;17.85;8.02;;;-2.00;99.90;;;;;;5067132;28;20055;-59
2022/12/09 02:53:21;;;;;;;16.95;8.35;;;-2.00;99.90;;;;;;5051555;28;20044;-60
2022/12/09 02:55:52;;;;;;;20.50;8.73;;;-2.10;99.90;;;;;;5065517;28;20475;-61
2022/12/09 02:58:19;;;;;;;15.07;8.75;;;-2.10;99.90;;;;;;5069526;28;20514;-58
2022/12/09 03:00:49;;;;;;;15.73;7.63;;;-2.10;99.90;;;;;;5070879;28;20060;-59
2022/12/09 03:03:17;;;;;;;13.63;8.00;;;-2.20;99.90;;;;;;5058773;28;20032;-59
2022/12/09 03:05:49;;;;;;;19.97;8.83;;;-2.20;99.90;;;;;;5068587;28;20051;-59
2022/12/09 03:08:43;;;;;;;16.98;8.60;;;-2.20;99.90;;;;;;5070041;28;20041;-59
2022/12/09 03:11:19;;;;;;;16.70;8.23;;;-2.20;99.90;;;;;;5052813;28;20037;-60
2022/12/09 03:14:11;;;;;;;17.40;8.45;;;-2.30;99.90;;;;;;5050417;28;20041;-59
2022/12/09 03:16:57;;;;;;;21.90;9.20;;;-2.30;99.90;;;;;;5053839;28;20064;-60
2022/12/09 03:20:02;;;;;;;20.83;8.73;;;-2.30;99.90;;;;;;5054597;28;20052;-60
2022/12/09 03:23:10;;;;;;;14.77;8.95;;;-2.40;99.90;;;;;;5063785;28;20047;-59
2022/12/09 03:26:15;;;;;;;20.92;9.63;;;-2.40;99.90;;;;;;5050222;28;20057;-59
2022/12/09 03:29:25;;;;;;;21.83;9.05;;;-2.40;99.90;;;;;;5054700;28;20040;-59
2022/12/09 03:32:32;;;;;;;19.92;9.23;;;-2.50;99.90;;;;;;5057651;28;20028;-59
2022/12/09 03:35:40;;;;;;;17.60;8.60;;;-2.50;99.90;;;;;;5073756;28;20032;-60
2022/12/09 03:38:46;;;;;;;20.70;9.27;;;-2.50;99.90;;;;;;5066199;28;20501;-60
2022/12/09 03:41:55;;;;;;;19.67;9.93;;;-2.60;99.90;;;;;;5063696;28;20391;-60
2022/12/09 03:45:04;;;;;;;23.13;8.32;;;-2.60;99.90;;;;;;5074649;28;20027;-61
2022/12/09 03:47:32;;;;;;;17.25;8.50;;;-2.60;99.90;;;;;;5073211;28;20072;-61
2022/12/09 03:50:00;;;;;;;16.48;8.82;;;-2.70;99.90;;;;;;5074387;28;20391;-60
2022/12/09 03:52:39;;;;;;;28.00;9.40;;;-2.70;99.90;;;;;;5054928;28;20051;-60
2022/12/09 03:55:15;;;;;;;22.15;9.18;;;-2.70;99.90;;;;;;5054495;28;20049;-59
2022/12/09 03:57:44;;;;;;;22.90;9.23;;;-2.80;99.90;;;;;;5057278;28;20052;-60
2022/12/09 04:00:13;;;;;;;20.15;9.45;;;-2.80;99.90;;;;;;5072454;28;20041;-59
2022/12/09 04:02:41;;;;;;;19.75;10.10;;;-2.80;99.90;;;;;;5053847;28;20052;-60
2022/12/09 04:05:11;;;;;;;19.33;9.88;;;-2.80;99.90;;;;;;5056284;28;20473;-60
2022/12/09 04:07:38;;;;;;;24.42;8.63;;;-2.80;99.90;;;;;;5062871;28;20049;-60
2022/12/09 04:10:07;;;;;;;24.90;9.95;;;-2.80;99.90;;;;;;5054056;28;20044;-59
2022/12/09 04:12:35;;;;;;;21.23;10.13;;;-2.90;99.90;;;;;;5054958;28;20045;-59
2022/12/09 04:15:03;;;;;;;23.58;9.48;;;-2.90;99.90;;;;;;5070078;28;20484;-59
2022/12/09 04:17:31;;;;;;;19.33;9.65;;;-2.90;99.90;;;;;;5072253;28;20056;-60
2022/12/09 04:19:59;;;;;;;18.27;9.43;;;-2.90;99.90;;;;;;5073115;28;20052;-61
2022/12/09 04:22:28;;;;;;;20.52;10.43;;;-3.00;99.90;;;;;;5058297;28;20539;-60
2022/12/09 04:24:56;;;;;;;17.20;8.93;;;;;;;;;;5065407;28;20606;-60
2022/12/09 04:27:24;;;;;;;20.00;9.57;;;-3.00;99.90;;;;;;5071884;28;20064;-60
2022/12/09 04:29:52;;;;;;;21.08;8.90;;;-3.00;99.90;;;;;;5054734;28;20049;-60
2022/12/09 04:32:21;;;;;;;18.08;9.10;;;-3.10;99.90;;;;;;5056188;28;20056;-60
2022/12/09 04:34:48;;;;;;;19.52;9.48;;;-3.10;99.90;;;;;;5053946;28;20484;-60
2022/12/09 04:37:16;;;;;;;19.58;8.93;;;-3.10;99.90;;;;;;5072944;28;20048;-60
2022/12/09 04:39:44;;;;;;;16.60;8.98;;;-3.10;99.90;;;;;;5054282;28;20408;-60
2022/12/09 04:42:12;;;;;;;21.92;10.45;;;-3.10;99.90;;;;;;5069979;28;20045;-60
2022/12/09 04:44:40;;;;;;;19.90;8.75;;;-3.20;99.90;;;;;;5053697;28;20045;-59
2022/12/09 04:47:08;;;;;;;21.58;10.13;;;-3.20;99.90;;;;;;5054008;28;20049;-59
2022/12/09 04:49:36;;;;;;;25.73;9.50;;;-3.20;99.90;;;;;;5052750;28;20049;-58
2022/12/09 04:52:04;;;;;;;19.17;9.95;;;-3.20;99.90;;;;;;5073419;28;20040;-59
2022/12/09 04:54:32;;;;;;;19.25;9.45;;;-3.20;99.90;;;;;;5055143;28;20041;-61
2022/12/09 04:57:00;;;;;;;14.60;8.32;;;-3.20;99.90;;;;;;5073210;28;20475;-60
2022/12/09 04:59:30;;;;;;;21.38;10.50;;;-3.20;99.90;;;;;;5066823;28;20480;-59
2022/12/09 05:01:58;;;;;;;22.92;10.18;;;-3.30;99.90;;;;;;5053056;28;20408;-60
2022/12/09 05:04:26;;;;;;;17.63;9.13;;;-3.30;99.90;;;;;;5070474;28;20055;-59
2022/12/09 05:06:54;;;;;;;21.00;8.80;;;-3.30;99.90;;;;;;5072174;28;20048;-60
2022/12/09 05:09:22;;;;;;;19.90;9.45;;;-3.30;99.90;;;;;;5053214;28;20041;-60
2022/12/09 05:11:50;;;;;;;21.00;9.70;;;-3.40;99.90;;;;;;5054222;28;20048;-61
2022/12/09 05:14:18;;;;;;;17.35;9.48;;;-3.40;99.90;;;;;;5052379;28;20049;-60
2022/12/09 05:16:47;;;;;;;18.70;9.57;;;-3.40;99.90;;;;;;5066344;28;20040;-60
2022/12/09 05:19:15;;;;;;;19.50;10.20;;;-3.40;99.90;;;;;;5064699;28;20041;-59
2022/12/09 05:21:43;;;;;;;17.23;9.98;;;-3.40;99.90;;;;;;5071795;28;20389;-59
2022/12/09 05:24:11;;;;;;;24.73;10.60;;;-3.50;99.90;;;;;;5072946;28;20056;-60
2022/12/09 05:26:39;;;;;;;22.38;9.40;;;-3.40;99.90;;;;;;5070219;28;20041;-60
2022/12/09 05:29:07;;;;;;;22.38;10.07;;;-3.40;99.90;;;;;;5054781;28;20084;-60
2022/12/09 05:31:35;;;;;;;20.73;10.70;;;-3.40;99.90;;;;;;5070137;28;20065;-59
2022/12/09 05:34:03;;;;;;;27.20;10.85;;;-3.50;99.90;;;;;;5071825;28;20055;-60
2022/12/09 05:36:32;;;;;;;22.60;9.63;;;-3.50;99.90;;;;;;5071903;28;20368;-60
2022/12/09 05:39:00;;;;;;;20.42;10.18;;;-3.50;99.90;;;;;;5071685;28;20040;-59
2022/12/09 05:41:28;;;;;;;19.23;9.50;;;-3.50;99.90;;;;;;5063806;28;20045;-59
2022/12/09 05:43:59;;;;;;;26.05;10.95;;;-3.60;99.90;;;;;;5062054;28;20056;-59
2022/12/09 05:46:27;;;;;;;18.42;10.38;;;-3.60;99.90;;;;;;5064852;28;20052;-60
2022/12/09 05:48:55;;;;;;;23.20;9.70;;;-3.60;99.90;;;;;;5047344;28;20416;-59
2022/12/09 05:51:26;;;;;;;23.38;10.35;;;-3.60;99.90;;;;;;5051107;28;20400;-60
2022/12/09 05:53:56;;;;;;;17.52;8.68;;;-3.60;99.90;;;;;;5068863;28;20519;-59
2022/12/09 05:56:24;;;;;;;18.63;8.38;;;-3.60;99.90;;;;;;5065723;28;20499;-59
2022/12/09 05:58:53;;;;;;;25.10;9.13;;;-3.70;99.90;;;;;;5061872;28;20052;-60
2022/12/09 06:01:22;;;;;;;25.67;8.95;;;-3.60;99.90;;;;;;5055885;28;20037;-60
2022/12/09 06:03:54;;;;;;;21.15;9.00;;;-3.70;99.90;;;;;;5055809;28;20053;-59
2022/12/09 06:06:29;;;;;;;18.20;8.40;;;-3.70;99.90;;;;;;5063240;28;20048;-60
2022/12/09 06:08:59;;;;;;;20.15;9.52;;;-3.70;99.90;;;;;;5067319;28;20040;-60
2022/12/09 06:11:28;;;;;;;22.25;9.70;;;-3.80;99.90;;;;;;5048902;28;20060;-59
2022/12/09 06:13:56;;;;;;;21.37;9.47;;;-3.70;99.90;;;;;;5067221;28;20052;-60
2022/12/09 06:16:25;;;;;;;24.75;10.68;;;-3.80;99.90;;;;;;5050577;28;20048;-59
2022/12/09 06:18:53;;;;;;;29.98;11.65;;;-3.80;99.90;;;;;;5057474;28;20057;-59
2022/12/09 06:21:22;;;;;;;22.67;8.90;;;-3.90;99.90;;;;;;5059432;28;20060;-59
2022/12/09 06:23:51;;;;;;;22.65;10.15;;;-3.80;99.90;;;;;;5061815;28;20041;-59
2022/12/09 06:26:25;;;;;;;17.58;9.70;;;-3.80;99.90;;;;;;5059046;28;20519;-59
2022/12/09 06:28:54;;;;;;;27.02;10.35;;;-3.90;99.90;;;;;;5068195;28;20048;-60
2022/12/09 06:31:22;;;;;;;22.77;9.57;;;-3.90;99.90;;;;;;5062179;28;20060;-59
2022/12/09 06:33:51;;;;;;;23.42;10.55;;;-3.90;99.90;;;;;;5051248;28;20063;-58
2022/12/09 06:36:23;;;;;;;19.80;8.80;;;-4.00;99.90;;;;;;5057483;28;20052;-58
2022/12/09 06:38:51;;;;;;;22.98;9.50;;;-4.00;99.90;;;;;;5067032;28;20052;-61
2022/12/09 06:41:19;;;;;;;21.05;10.02;;;-4.00;99.90;;;;;;5064298;28;20407;-58
2022/12/09 06:43:47;;;;;;;25.05;9.77;;;-4.00;99.90;;;;;;5061012;28;20040;-59
2022/12/09 06:46:23;;;;;;;20.37;9.80;;;-4.10;99.90;;;;;;5045481;28;20045;-59
2022/12/09 06:48:54;;;;;;;28.08;10.55;;;-4.10;99.90;;;;;;5052906;28;20309;-59
2022/12/09 06:51:25;;;;;;;19.63;9.68;;;-4.10;99.90;;;;;;5059023;28;20052;-59
2022/12/09 06:53:54;;;;;;;21.08;9.68;;;-4.10;99.90;;;;;;5049274;28;20041;-59
2022/12/09 06:56:26;;;;;;;22.67;11.68;;;-4.00;99.90;;;;;;5047633;28;20436;-58
2022/12/09 06:58:54;;;;;;;26.58;11.55;;;-4.10;99.90;;;;;;5062290;28;20522;-58
2022/12/09 07:01:23;;;;;;;30.30;12.35;;;-4.10;99.90;;;;;;5060959;28;20044;-59
2022/12/09 07:03:55;;;;;;;28.10;12.07;;;-4.10;99.90;;;;;;5051596;28;20045;-58
2022/12/09 07:06:37;;;;;;;28.33;12.52;;;-4.10;99.90;;;;;;5056387;28;20041;-58
2022/12/09 07:09:14;;;;;;;23.33;10.13;;;-4.10;99.90;;;;;;5062866;28;20052;-60
2022/12/09 07:11:44;;;;;;;30.98;9.82;;;-4.10;99.90;;;;;;5064213;28;20369;-59
2022/12/09 07:14:15;;;;;;;24.83;10.80;;;-4.10;99.90;;;;;;5053317;28;20041;-59
2022/12/09 07:16:43;;;;;;;21.73;11.00;;;-4.20;99.90;;;;;;5063378;28;20051;-58
2022/12/09 07:19:16;;;;;;;22.75;11.32;;;-4.20;99.90;;;;;;5053648;28;20041;-59
2022/12/09 07:21:45;;;;;;;25.58;11.30;;;-4.20;99.90;;;;;;5046376;28;20041;-58
2022/12/09 07:24:14;;;;;;;24.53;11.27;;;-4.20;99.90;;;;;;5054476;28;20041;-58
2022/12/09 07:26:42;;;;;;;30.45;12.07;;;-4.20;99.90;;;;;;5047576;28;20302;-58
2022/12/09 07:29:10;;;;;;;30.73;11.63;;;-4.30;99.90;;;;;;5062299;28;20685;-60
2022/12/09 07:31:38;;;;;;;25.05;11.48;;;-4.30;99.90;;;;;;5065804;28;20040;-58
2022/12/09 07:34:06;;;;;;;31.52;12.65;;;-4.30;99.90;;;;;;5055787;28;20041;-58
2022/12/09 07:36:37;;;;;;;28.67;11.77;;;-4.30;99.90;;;;;;5060589;28;20491;-58
2022/12/09 07:39:14;;;;;;;35.13;12.23;;;-4.30;99.90;;;;;;5056060;28;20056;-58
2022/12/09 07:41:42;;;;;;;24.83;12.52;;;-4.30;99.90;;;;;;5056486;28;20060;-58
2022/12/09 07:44:10;;;;;;;23.67;11.40;;;-4.30;99.90;;;;;;5065203;28;20049;-57
2022/12/09 07:46:39;;;;;;;25.17;12.35;;;-4.40;99.90;;;;;;5060389;28;20044;-56
2022/12/09 07:49:10;;;;;;;26.08;12.23;;;-4.30;99.90;;;;;;5056150;28;20044;-58
2022/12/09 07:51:41;;;;;;;37.30;13.18;;;-4.30;99.90;;;;;;5053464;28;20079;-57
2022/12/09 07:54:14;;;;;;;27.52;11.75;;;-4.40;99.90;;;;;;5063506;28;20038;-57
2022/12/09 07:56:43;;;;;;;32.30;12.77;;;-4.40;99.90;;;;;;5064396;28;20059;-58
2022/12/09 07:59:12;;;;;;;22.92;12.07;;;-4.40;99.90;;;;;;5067454;28;20040;-57
2022/12/09 08:01:44;;;;;;;33.38;11.88;;;-4.40;99.90;;;;;;5049502;28;20060;-57
2022/12/09 08:04:14;;;;;;;32.65;12.10;;;-4.50;99.90;;;;;;5057224;28;20055;-57
2022/12/09 08:06:42;;;;;;;31.87;13.47;;;-4.40;99.90;;;;;;5058045;28;21131;-56
2022/12/09 08:09:12;;;;;;;31.17;13.50;;;-4.40;99.90;;;;;;5063820;28;20052;-58
2022/12/09 08:11:41;;;;;;;27.80;13.43;;;-4.50;99.90;;;;;;5061242;28;20067;-59
2022/12/09 08:14:10;;;;;;;33.92;13.80;;;-4.50;99.90;;;;;;5055423;28;20041;-57
2022/12/09 08:16:42;;;;;;;37.97;14.73;;;-4.40;99.90;;;;;;5059792;28;20036;-57
2022/12/09 08:19:11;;;;;;;32.90;13.55;;;-4.40;99.90;;;;;;5056771;28;20040;-58
2022/12/09 08:21:40;;;;;;;34.05;14.00;;;-4.50;99.90;;;;;;5050534;28;20045;-57
2022/12/09 08:24:10;;;;;;;30.27;12.55;;;-4.40;99.90;;;;;;5053220;28;20052;-58
2022/12/09 08:26:39;;;;;;;32.90;11.63;;;-4.40;99.90;;;;;;5067734;28;20037;-58
2022/12/09 08:29:12;;;;;;;31.87;12.77;;;-4.40;99.90;;;;;;5060121;28;20053;-58
2022/12/09 08:31:41;;;;;;;31.33;13.43;;;-4.40;99.90;;;;;;5053705;28;20309;-58
2022/12/09 08:34:11;;;;;;;31.10;12.35;;;-4.40;99.90;;;;;;5053244;28;20056;-59
2022/12/09 08:36:40;;;;;;;38.40;15.50;;;-4.40;99.90;;;;;;5056191;28;20041;-58
2022/12/09 08:39:09;;;;;;;28.52;14.63;;;-4.30;99.90;;;;;;5064034;28;20484;-58
2022/12/09 08:41:37;;;;;;;34.03;14.40;;;-4.40;99.90;;;;;;5066100;28;20048;-59
2022/12/09 08:44:18;;;;;;;25.88;12.77;;;-4.30;99.90;;;;;;5065128;28;20041;-58
2022/12/09 08:46:49;;;;;;;39.80;14.18;;;-4.30;99.90;;;;;;5068218;28;20045;-57
2022/12/09 08:49:20;;;;;;;31.65;14.05;;;-4.30;99.90;;;;;;5065558;28;20044;-58
2022/12/09 08:51:51;;;;;;;34.08;14.73;;;-4.30;99.90;;;;;;5057208;28;20040;-58
2022/12/09 08:54:20;;;;;;;26.77;12.60;;;-4.30;99.90;;;;;;5070159;28;20373;-58
2022/12/09 08:56:54;;;;;;;32.40;12.40;;;-4.30;99.90;;;;;;5070245;28;20048;-58
2022/12/09 08:59:23;;;;;;;34.30;13.07;;;-4.20;99.90;;;;;;5068042;28;20037;-57
2022/12/09 09:01:52;;;;;;;29.05;14.82;;;-4.20;99.90;;;;;;5058942;28;20075;-57
2022/12/09 09:04:23;;;;;;;36.35;14.73;;;-4.10;99.90;;;;;;5064629;28;20784;-60
2022/12/09 09:06:52;;;;;;;32.70;15.13;;;-4.10;99.90;;;;;;5065912;28;20388;-60
2022/12/09 09:09:21;;;;;;;34.45;15.73;;;-3.90;99.90;;;;;;5069626;28;20063;-58
2022/12/09 09:11:49;;;;;;;29.95;14.73;;;-4.00;99.90;;;;;;5062684;28;20048;-60
2022/12/09 09:14:17;;;;;;;39.07;15.50;;;-3.90;99.90;;;;;;5055503;28;20139;-58
2022/12/09 09:16:45;;;;;;;42.08;16.40;;;-3.80;99.90;;;;;;5063860;28;20033;-57
2022/12/09 09:19:20;;;;;;;36.38;16.42;;;-3.70;99.90;;;;;;5065009;28;20048;-59
2022/12/09 09:21:50;;;;;;;33.97;15.00;;;-3.70;99.90;;;;;;5050028;28;20045;-58
2022/12/09 09:24:21;;;;;;;36.58;14.60;;;-3.60;99.90;;;;;;5048419;28;20052;-57
2022/12/09 09:26:51;;;;;;;37.50;15.20;;;-3.50;99.90;;;;;;5063167;28;20041;-57
2022/12/09 09:29:21;;;;;;;34.90;14.85;;;-3.50;99.90;;;;;;5068995;28;20048;-56
2022/12/09 09:31:53;;;;;;;37.03;15.45;;;-3.40;99.90;;;;;;5069412;28;20045;-58
2022/12/09 09:34:24;;;;;;;33.42;15.65;;;-3.40;99.90;;;;;;5055891;28;20044;-58
2022/12/09 09:36:54;;;;;;;36.75;16.98;;;-3.20;99.90;;;;;;5065110;28;20396;-60
2022/12/09 09:39:23;;;;;;;33.35;15.73;;;-3.20;99.90;;;;;;5069081;28;20040;-58
2022/12/09 09:41:56;;;;;;;40.10;19.17;;;-3.10;99.90;;;;;;5067708;28;20052;-57
2022/12/09 09:44:47;;;;;;;39.95;16.85;;;-3.00;99.90;;;;;;5060702;28;20048;-58
2022/12/09 09:47:24;;;;;;;34.40;15.70;;;-2.90;99.90;;;;;;5068975;28;20055;-57
2022/12/09 09:49:54;;;;;;;36.55;17.60;;;-2.90;99.90;;;;;;5065932;28;20119;-57
2022/12/09 09:52:26;;;;;;;37.65;18.45;;;-2.80;99.90;;;;;;5069097;28;20504;-57
2022/12/09 09:54:55;;;;;;;42.45;20.67;;;-2.70;99.90;;;;;;5069412;28;20488;-57
2022/12/09 09:57:51;;;;;;;41.33;20.48;;;-2.60;99.90;;;;;;5068682;28;20539;-57
2022/12/09 10:00:30;;;;;;;40.65;19.23;;;-2.50;99.90;;;;;;5067820;28;20522;-56
2022/12/09 10:03:17;;;;;;;41.00;20.97;;;-2.40;99.90;;;;;;5067861;28;20418;-57
2022/12/09 10:05:51;;;;;;;49.95;20.75;;;-2.30;99.90;;;;;;5062642;28;20049;-56
2022/12/09 10:08:45;;;;;;;46.70;20.92;;;-2.10;99.90;;;;;;5068433;28;20040;-57
2022/12/09 10:11:21;;;;;;;51.78;21.27;;;-2.00;99.90;;;;;;5067071;28;20507;-58
2022/12/09 10:13:53;;;;;;;47.25;21.73;;;-1.90;99.90;;;;;;5067243;28;20052;-58
2022/12/09 10:16:40;;;;;;;43.65;19.40;;;-1.80;99.90;;;;;;5068704;28;20048;-58
2022/12/09 10:19:29;;;;;;;40.50;20.27;;;-1.60;99.90;;;;;;5068329;28;20045;-59
2022/12/09 10:22:00;;;;;;;44.70;22.45;;;-1.50;99.90;;;;;;5047262;28;20076;-59
2022/12/09 10:24:33;;;;;;;52.08;20.92;;;-1.40;99.90;;;;;;5064169;28;20048;-59
2022/12/09 10:27:34;;;;;;;43.65;20.85;;;-1.20;99.90;;;;;;5066273;28;20040;-59
2022/12/09 10:30:12;;;;;;;39.63;20.08;;;-1.10;99.90;;;;;;5063865;28;20048;-59
2022/12/09 10:32:41;;;;;;;46.58;19.75;;;-0.90;99.90;;;;;;5063674;28;20041;-60
2022/12/09 10:35:27;;;;;;;44.43;19.90;;;-0.80;99.90;;;;;;5063839;28;20041;-59
2022/12/09 10:38:14;;;;;;;51.45;19.90;;;-0.60;99.90;;;;;;5068002;28;20293;-59
2022/12/09 10:40:44;;;;;;;36.42;18.42;;;-0.50;99.90;;;;;;5066349;28;20391;-59
2022/12/09 10:43:34;;;;;;;30.05;15.10;;;-0.50;99.90;;;;;;5067538;28;20059;-58
2022/12/09 10:46:10;;;;;;;34.47;15.07;;;-0.40;99.90;;;;;;5066711;28;20499;-59
2022/12/09 10:48:48;;;;;;;33.55;15.70;;;-0.20;99.90;;;;;;5067195;28;20065;-59
2022/12/09 10:51:29;;;;;;;28.60;13.43;;;-0.10;99.90;;;;;;5062443;28;20056;-58
2022/12/09 10:53:59;;;;;;;39.10;14.98;;;0.00;99.90;;;;;;5063962;28;20071;-58
2022/12/09 10:56:29;;;;;;;26.90;13.55;;;0.20;99.90;;;;;;5068251;28;20048;-60
2022/12/09 10:59:21;;;;;;;30.73;11.63;;;0.50;99.90;;;;;;5065190;28;20057;-60
2022/12/09 11:01:53;;;;;;;22.58;10.85;;;0.50;99.90;;;;;;5068377;28;20048;-59
2022/12/09 11:04:27;;;;;;;20.95;10.38;;;0.90;99.90;;;;;;5047911;28;20064;-59
2022/12/09 11:07:11;;;;;;;23.70;10.60;;;0.90;99.90;;;;;;5062395;28;20053;-59
2022/12/09 11:09:42;;;;;;;16.42;7.68;;;1.30;99.90;;;;;;5055139;28;20381;-60
2022/12/09 11:12:25;;;;;;;15.27;7.00;;;1.30;99.90;;;;;;5067311;28;20044;-59
2022/12/09 11:14:56;;;;;;;14.85;7.55;;;1.60;99.90;;;;;;5065986;28;20047;-60
2022/12/09 11:17:29;;;;;;;19.70;9.00;;;1.90;99.90;;;;;;5060209;28;20041;-59
2022/12/09 11:20:18;;;;;;;12.77;5.80;;;2.10;99.90;;;;;;5065565;28;20053;-59
2022/12/09 11:23:13;;;;;;;9.82;4.65;;;2.40;99.90;;;;;;5053938;28;20044;-60
2022/12/09 11:25:53;;;;;;;10.98;4.20;;;2.80;99.90;;;;;;5055312;28;20068;-59
2022/12/09 11:28:24;;;;;;;12.80;5.50;;;3.10;99.90;;;;;;5067363;28;20079;-59
2022/12/09 11:30:57;;;;;;;11.95;5.07;;;3.30;99.90;;;;;;5067752;28;20492;-59
2022/12/09 11:34:14;;;;;;;9.13;4.40;;;3.50;99.90;;;;;;5066460;28;20067;-59
2022/12/09 11:36:48;;;;;;;12.68;5.63;;;3.90;99.90;;;;;;5064087;28;20041;-59
2022/12/09 11:39:22;;;;;;;8.50;4.22;;;4.00;99.90;;;;;;5053616;28;20049;-61
2022/12/09 11:42:12;;;;;;;13.98;4.20;;;4.00;99.90;;;;;;5062815;28;20416;-60
2022/12/09 11:44:55;;;;;;;13.20;5.75;;;4.00;99.90;;;;;;5055121;28;20056;-61
2022/12/09 11:47:34;;;;;;;17.10;7.18;;;3.80;99.90;;;;;;5053389;28;20048;-61
2022/12/09 11:50:31;;;;;;;9.82;4.22;;;3.90;99.90;;;;;;5066299;28;20052;-61
2022/12/09 11:53:11;;;;;;;7.30;2.70;;;4.20;99.90;;;;;;5057839;28;20420;-60
2022/12/09 11:55:56;;;;;;;6.53;2.78;;;4.70;99.90;;;;;;5051357;28;20389;-59
2022/12/09 11:58:42;;;;;;;8.13;3.35;;;4.90;99.90;;;;;;5061183;28;20062;-59
2022/12/09 12:01:26;;;;;;;8.73;2.92;;;4.90;99.90;;;;;;5066068;28;20498;-59
2022/12/09 12:04:06;;;;;;;7.47;3.05;;;5.10;99.90;;;;;;5064931;28;20534;-59
2022/12/09 12:06:41;;;;;;;7.97;3.00;;;5.00;99.90;;;;;;5066119;28;20049;-59
2022/12/09 12:09:21;;;;;;;14.18;3.67;;;5.00;99.90;;;;;;5067604;28;20049;-59
2022/12/09 12:12:13;;;;;;;7.15;3.38;;;5.00;99.90;;;;;;5071010;28;20049;-59
2022/12/09 12:14:42;;;;;;;5.20;3.30;;;4.90;99.90;;;;;;5052713;28;20049;-60
2022/12/09 12:17:28;;;;;;;7.63;3.40;;;5.00;99.90;;;;;;5050863;28;20048;-60
2022/12/09 12:19:56;;;;;;;9.20;3.50;;;5.20;99.90;;;;;;5068779;28;20123;-60
2022/12/09 12:22:36;;;;;;;13.50;3.03;;;5.20;99.90;;;;;;5066085;28;20047;-59
2022/12/09 12:25:27;;;;;;;6.32;3.03;;;5.20;99.90;;;;;;5050435;28;20045;-59
2022/12/09 12:28:21;;;;;;;13.35;3.25;;;5.10;99.90;;;;;;5056572;28;20055;-59
2022/12/09 12:31:18;;;;;;;6.63;2.75;;;5.10;99.90;;;;;;5069567;28;20396;-59
2022/12/09 12:34:13;;;;;;;7.85;3.70;;;5.00;99.90;;;;;;5069210;28;20510;-60
2022/12/09 12:37:13;;;;;;;5.63;3.10;;;4.70;99.90;;;;;;5056059;28;20863;-60
2022/12/09 12:39:51;;;;;;;10.88;5.20;;;4.20;99.90;;;;;;5050757;28;20067;-59
2022/12/09 12:42:33;;;;;;;12.85;5.55;;;4.00;99.90;;;;;;5068897;28;20376;-59
2022/12/09 12:48:15;;;;;;;5.88;3.60;;;4.90;99.90;;;;;;5070655;28;20056;-58
2022/12/09 12:50:53;;;;;;;9.52;4.15;;;5.70;99.90;;;;;;5068159;28;20047;-59
2022/12/09 12:53:40;;;;;;;16.95;5.75;;;6.30;99.90;;;;;;5059979;28;20048;-58
2022/12/09 12:56:40;;;;;;;13.70;5.57;;;7.00;99.90;;;;;;5060954;28;20167;-58
2022/12/09 12:59:31;;;;;;;14.85;5.55;;;7.30;99.90;;;;;;5043974;28;20049;-58
2022/12/09 13:02:02;;;;;;;12.05;5.13;;;7.70;99.90;;;;;;5069815;28;20500;-59
2022/12/09 13:04:38;;;;;;;11.07;4.90;;;8.00;99.90;;;;;;5063847;28;20041;-59
2022/12/09 13:07:28;;;;;;;10.60;3.70;;;8.40;99.90;;;;;;5058327;28;20045;-56
2022/12/09 13:10:21;;;;;;;7.68;3.17;;;8.70;99.90;;;;;;5050302;28;20048;-58
2022/12/09 13:12:55;;;;;;;11.15;3.85;;;8.70;99.90;;;;;;5056127;28;20044;-59
2022/12/09 13:15:31;;;;;;;7.30;3.35;;;8.80;99.90;;;;;;5049650;28;20056;-58
2022/12/09 13:18:13;;;;;;;8.65;3.47;;;9.20;99.90;;;;;;5056340;28;20047;-59